SWR152 KDEN-LSZH
Flight info
| Callsign | SWR152 |
|---|---|
| Flight time | N/A |
| Altitude | 35000 |
| Route | EEONS8 WYNDM DCT OBH DCT FOD DCT DLL DCT TVC DCT DASUG DCT GELLS DCT SPOTE DCT FOXXE DCT HOIST/M083F370 DCT 57N050W 58N040W 58N030W 57N020W DCT PIKIL DCT SOVED/N0477F370 DCT REVNU DCT LIPGO/N0472F390 DCT NUCHU DCT BOGNA UL612 VEULE/N0479F350 DCT TEPRI UN491 POGZI DCT GELTA DCT MANAG DCT PEVIT DCT BLM |
| Aircraft | A346/H-SDE2E3FGHIJ3J4J5M1RWXY/LB1D1 |
Departure
| Time | N/A |
|---|---|
| Airport | Denver International Airport (KDEN) |
Arrival
| Time | 2026-04-30 13:43 |
|---|---|
| Airport | Zürich Airport (LSZH) |
| Time | Latitude | Longitude | Altitude | Speed | Heading |
|---|---|---|---|---|---|
| 2026-04-30 12:06 | 54.13919 | -8.95572 | 35121 ft | 440 kts | 119° |
| 2026-04-30 12:06 | 54.12546 | -8.90827 | 35121 ft | 440 kts | 119° |
| 2026-04-30 12:07 | 54.09833 | -8.81481 | 35119 ft | 441 kts | 119° |
| 2026-04-30 12:07 | 54.07105 | -8.72120 | 35122 ft | 441 kts | 120° |
| 2026-04-30 12:08 | 54.04360 | -8.62741 | 35106 ft | 441 kts | 120° |
| 2026-04-30 12:08 | 54.01608 | -8.53375 | 35107 ft | 442 kts | 120° |
| 2026-04-30 12:09 | 53.98863 | -8.44072 | 35109 ft | 442 kts | 120° |
| 2026-04-30 12:09 | 53.96094 | -8.34721 | 35110 ft | 442 kts | 120° |
| 2026-04-30 12:10 | 53.93322 | -8.25397 | 35118 ft | 442 kts | 120° |
| 2026-04-30 12:10 | 53.90536 | -8.16061 | 35120 ft | 442 kts | 120° |
| 2026-04-30 12:11 | 53.87744 | -8.06742 | 35125 ft | 443 kts | 120° |
| 2026-04-30 12:11 | 53.84933 | -7.97397 | 35126 ft | 443 kts | 120° |
| 2026-04-30 12:12 | 53.82126 | -7.88101 | 35123 ft | 443 kts | 120° |
| 2026-04-30 12:12 | 53.79307 | -7.78804 | 35123 ft | 443 kts | 120° |
| 2026-04-30 12:13 | 53.76485 | -7.69530 | 35125 ft | 443 kts | 120° |
| 2026-04-30 12:13 | 53.73667 | -7.60309 | 35128 ft | 443 kts | 120° |
| 2026-04-30 12:14 | 53.70823 | -7.51034 | 35130 ft | 443 kts | 120° |
| 2026-04-30 12:14 | 53.67977 | -7.41792 | 35131 ft | 444 kts | 121° |
| 2026-04-30 12:15 | 53.65135 | -7.32596 | 35131 ft | 444 kts | 121° |
| 2026-04-30 12:15 | 53.62268 | -7.23357 | 35134 ft | 444 kts | 121° |
| 2026-04-30 12:16 | 53.59390 | -7.14117 | 35136 ft | 444 kts | 121° |
| 2026-04-30 12:16 | 53.56508 | -7.04899 | 35132 ft | 444 kts | 121° |
| 2026-04-30 12:17 | 53.52186 | -6.91140 | 35139 ft | 444 kts | 121° |
| 2026-04-30 12:17 | 53.49279 | -6.81931 | 35148 ft | 445 kts | 121° |
| 2026-04-30 12:18 | 53.46363 | -6.72729 | 35150 ft | 445 kts | 121° |
| 2026-04-30 12:18 | 53.43443 | -6.63547 | 35149 ft | 446 kts | 121° |
| 2026-04-30 12:19 | 53.40527 | -6.54416 | 35154 ft | 446 kts | 121° |
| 2026-04-30 12:19 | 53.37585 | -6.45233 | 35153 ft | 446 kts | 121° |
| 2026-04-30 12:20 | 53.34634 | -6.36059 | 35149 ft | 446 kts | 121° |
| 2026-04-30 12:20 | 53.31681 | -6.26916 | 35161 ft | 446 kts | 121° |
| 2026-04-30 12:21 | 53.28742 | -6.17847 | 35163 ft | 446 kts | 121° |
| 2026-04-30 12:21 | 53.25764 | -6.08697 | 35145 ft | 447 kts | 121° |
| 2026-04-30 12:22 | 53.22779 | -5.99554 | 35160 ft | 448 kts | 121° |
| 2026-04-30 12:22 | 53.19804 | -5.90480 | 35158 ft | 448 kts | 121° |
| 2026-04-30 12:23 | 53.16795 | -5.81335 | 35153 ft | 449 kts | 122° |
| 2026-04-30 12:23 | 53.13776 | -5.72194 | 35154 ft | 449 kts | 122° |
| 2026-04-30 12:24 | 53.10754 | -5.63079 | 35149 ft | 450 kts | 122° |
| 2026-04-30 12:24 | 53.07711 | -5.53939 | 35146 ft | 450 kts | 122° |
| 2026-04-30 12:25 | 53.04492 | -5.45084 | 35141 ft | 449 kts | 126° |
| 2026-04-30 12:25 | 53.01106 | -5.36350 | 35144 ft | 449 kts | 125° |
| 2026-04-30 12:26 | 52.97704 | -5.27601 | 35137 ft | 449 kts | 126° |
| 2026-04-30 12:26 | 52.94874 | -5.20353 | 35137 ft | 450 kts | 126° |
| 2026-04-30 12:27 | 52.90908 | -5.10231 | 35133 ft | 450 kts | 126° |
| 2026-04-30 12:27 | 52.88048 | -5.02959 | 35130 ft | 450 kts | 126° |
| 2026-04-30 12:28 | 52.84637 | -4.94313 | 35126 ft | 450 kts | 126° |
| 2026-04-30 12:28 | 52.81203 | -4.85639 | 35120 ft | 449 kts | 126° |
| 2026-04-30 12:29 | 52.77764 | -4.76984 | 35117 ft | 450 kts | 126° |
| 2026-04-30 12:29 | 52.74344 | -4.68405 | 35114 ft | 450 kts | 126° |
| 2026-04-30 12:30 | 52.70884 | -4.59754 | 35113 ft | 450 kts | 126° |
| 2026-04-30 12:30 | 52.67428 | -4.51141 | 35115 ft | 450 kts | 126° |
| 2026-04-30 12:31 | 52.63963 | -4.42538 | 35110 ft | 450 kts | 126° |
| 2026-04-30 12:31 | 52.60515 | -4.34002 | 35110 ft | 449 kts | 126° |
| 2026-04-30 12:32 | 52.57034 | -4.25418 | 35114 ft | 449 kts | 126° |
| 2026-04-30 12:32 | 52.53560 | -4.16878 | 35116 ft | 449 kts | 126° |
| 2026-04-30 12:33 | 52.50078 | -4.08347 | 35122 ft | 449 kts | 126° |
| 2026-04-30 12:33 | 52.46617 | -3.99895 | 35125 ft | 448 kts | 126° |
| 2026-04-30 12:34 | 52.43124 | -3.91391 | 35128 ft | 448 kts | 126° |
| 2026-04-30 12:34 | 52.39625 | -3.82906 | 35139 ft | 448 kts | 126° |
| 2026-04-30 12:35 | 52.36144 | -3.74491 | 35142 ft | 448 kts | 126° |
| 2026-04-30 12:35 | 52.32638 | -3.66044 | 35116 ft | 448 kts | 126° |
| 2026-04-30 12:36 | 52.29128 | -3.57613 | 35148 ft | 448 kts | 126° |
| 2026-04-30 12:36 | 52.25610 | -3.49188 | 35163 ft | 447 kts | 126° |
| 2026-04-30 12:37 | 52.22114 | -3.40846 | 35157 ft | 447 kts | 126° |
| 2026-04-30 12:37 | 52.18594 | -3.32475 | 35166 ft | 447 kts | 126° |
| 2026-04-30 12:38 | 52.15076 | -3.24135 | 35160 ft | 446 kts | 126° |
| 2026-04-30 12:38 | 52.11547 | -3.15797 | 35169 ft | 446 kts | 126° |
| 2026-04-30 12:39 | 52.05642 | -3.03247 | 35189 ft | 32000 kts | 128° |
| 2026-04-30 12:39 | 50.44844 | 0.22560 | 34809 ft | 0 kts | 128° |
| 2026-04-30 12:39 | 50.79260 | -0.46215 | 35070 ft | 395 kts | 128° |
| 2026-04-30 12:39 | 50.77834 | -0.42421 | 35076 ft | 405 kts | 118° |
| 2026-04-30 12:40 | 50.76513 | -0.38471 | 35183 ft | 411 kts | 122° |
| 2026-04-30 12:40 | 50.74943 | -0.34697 | 35178 ft | 419 kts | 128° |
| 2026-04-30 12:40 | 50.70955 | -0.27723 | 35187 ft | 437 kts | 136° |
| 2026-04-30 12:41 | 50.66302 | -0.21366 | 35187 ft | 444 kts | 142° |
| 2026-04-30 12:41 | 50.61214 | -0.15757 | 35185 ft | 445 kts | 146° |
| 2026-04-30 12:42 | 50.56052 | -0.10354 | 35186 ft | 445 kts | 146° |
| 2026-04-30 12:42 | 50.50910 | -0.04977 | 35180 ft | 446 kts | 146° |
| 2026-04-30 12:43 | 50.45725 | 0.00424 | 35178 ft | 446 kts | 146° |
| 2026-04-30 12:43 | 50.40545 | 0.05797 | 35173 ft | 446 kts | 146° |
| 2026-04-30 12:44 | 50.35363 | 0.11152 | 35175 ft | 447 kts | 146° |
| 2026-04-30 12:44 | 50.30162 | 0.16519 | 35173 ft | 447 kts | 146° |
| 2026-04-30 12:45 | 50.24946 | 0.21880 | 35168 ft | 448 kts | 146° |
| 2026-04-30 12:45 | 50.19726 | 0.27234 | 35166 ft | 448 kts | 146° |
| 2026-04-30 12:46 | 50.14514 | 0.32601 | 35163 ft | 449 kts | 146° |
| 2026-04-30 12:46 | 50.09333 | 0.37924 | 35157 ft | 449 kts | 146° |
| 2026-04-30 12:47 | 50.04096 | 0.43282 | 35154 ft | 449 kts | 146° |
| 2026-04-30 12:47 | 49.98853 | 0.48630 | 35152 ft | 450 kts | 146° |
| 2026-04-30 12:48 | 49.93610 | 0.53963 | 35147 ft | 450 kts | 146° |
| 2026-04-30 12:48 | 49.88508 | 0.59484 | 35143 ft | 450 kts | 142° |
| 2026-04-30 12:49 | 49.83730 | 0.65768 | 35143 ft | 450 kts | 136° |
| 2026-04-30 12:49 | 49.79363 | 0.72739 | 35139 ft | 450 kts | 132° |
| 2026-04-30 12:50 | 49.75120 | 0.79927 | 35138 ft | 451 kts | 132° |
| 2026-04-30 12:50 | 49.70909 | 0.87030 | 35137 ft | 451 kts | 132° |
| 2026-04-30 12:51 | 49.66658 | 0.94183 | 35140 ft | 451 kts | 132° |
| 2026-04-30 12:51 | 49.62404 | 1.01325 | 35145 ft | 451 kts | 132° |
| 2026-04-30 12:52 | 49.58173 | 1.08408 | 35146 ft | 451 kts | 132° |
| 2026-04-30 12:52 | 49.53918 | 1.15513 | 35153 ft | 451 kts | 132° |
| 2026-04-30 12:53 | 49.49657 | 1.22608 | 35152 ft | 451 kts | 132° |
| 2026-04-30 12:53 | 49.45386 | 1.29702 | 35155 ft | 451 kts | 132° |
| 2026-04-30 12:54 | 49.41429 | 1.37155 | 35146 ft | 451 kts | 121° |
| 2026-04-30 12:54 | 49.38566 | 1.45752 | 35151 ft | 451 kts | 116° |
| 2026-04-30 12:55 | 49.35777 | 1.54416 | 35146 ft | 451 kts | 117° |
| 2026-04-30 12:55 | 49.32970 | 1.63030 | 35144 ft | 451 kts | 117° |
| 2026-04-30 12:56 | 49.30143 | 1.71637 | 35143 ft | 451 kts | 117° |
| 2026-04-30 12:56 | 49.27307 | 1.80220 | 35149 ft | 451 kts | 117° |
| 2026-04-30 12:57 | 49.24461 | 1.88803 | 35150 ft | 451 kts | 117° |
| 2026-04-30 12:57 | 49.21626 | 1.97321 | 35155 ft | 451 kts | 117° |
| 2026-04-30 12:58 | 49.18749 | 2.05936 | 35153 ft | 451 kts | 117° |
| 2026-04-30 12:58 | 49.15881 | 2.14493 | 35154 ft | 451 kts | 117° |
| 2026-04-30 12:59 | 49.13005 | 2.23047 | 35151 ft | 452 kts | 117° |
| 2026-04-30 12:59 | 49.10136 | 2.31553 | 35152 ft | 451 kts | 117° |
| 2026-04-30 13:00 | 49.07250 | 2.40079 | 35156 ft | 451 kts | 117° |
| 2026-04-30 13:00 | 49.04360 | 2.48587 | 35157 ft | 451 kts | 117° |
| 2026-04-30 13:01 | 49.01456 | 2.57111 | 35151 ft | 451 kts | 117° |
| 2026-04-30 13:01 | 48.98569 | 2.65554 | 35154 ft | 451 kts | 117° |
| 2026-04-30 13:02 | 48.95651 | 2.74059 | 35154 ft | 452 kts | 117° |
| 2026-04-30 13:02 | 48.92724 | 2.82566 | 35157 ft | 452 kts | 117° |
| 2026-04-30 13:03 | 48.89794 | 2.91049 | 35157 ft | 452 kts | 117° |
| 2026-04-30 13:03 | 48.86863 | 2.99510 | 35159 ft | 452 kts | 117° |
| 2026-04-30 13:04 | 48.83933 | 3.07940 | 35162 ft | 453 kts | 117° |
| 2026-04-30 13:04 | 48.80985 | 3.16393 | 35162 ft | 453 kts | 117° |
| 2026-04-30 13:05 | 48.78029 | 3.24843 | 35160 ft | 452 kts | 117° |
| 2026-04-30 13:06 | 48.73602 | 3.37444 | 35162 ft | 453 kts | 117° |
| 2026-04-30 13:06 | 48.70632 | 3.45865 | 35161 ft | 453 kts | 117° |
| 2026-04-30 13:07 | 48.67650 | 3.54291 | 35162 ft | 453 kts | 117° |
| 2026-04-30 13:07 | 48.64655 | 3.62724 | 35161 ft | 454 kts | 117° |
| 2026-04-30 13:08 | 48.61674 | 3.71091 | 35161 ft | 454 kts | 117° |
| 2026-04-30 13:08 | 48.58667 | 3.79503 | 35162 ft | 454 kts | 117° |
| 2026-04-30 13:09 | 48.55655 | 3.87902 | 35162 ft | 455 kts | 117° |
| 2026-04-30 13:09 | 48.52630 | 3.96302 | 35159 ft | 455 kts | 117° |
| 2026-04-30 13:10 | 48.49622 | 4.04691 | 35156 ft | 455 kts | 116° |
| 2026-04-30 13:10 | 48.46704 | 4.13185 | 35158 ft | 455 kts | 116° |
| 2026-04-30 13:11 | 48.43783 | 4.21687 | 35158 ft | 456 kts | 116° |
| 2026-04-30 13:11 | 48.40852 | 4.30157 | 35160 ft | 456 kts | 116° |
| 2026-04-30 13:12 | 48.37916 | 4.38601 | 35158 ft | 456 kts | 116° |
| 2026-04-30 13:12 | 48.34961 | 4.47066 | 35158 ft | 457 kts | 116° |
| 2026-04-30 13:13 | 48.30507 | 4.59775 | 35160 ft | 457 kts | 116° |
| 2026-04-30 13:14 | 48.26055 | 4.72412 | 35158 ft | 457 kts | 117° |
| 2026-04-30 13:14 | 48.21566 | 4.85086 | 35162 ft | 457 kts | 117° |
| 2026-04-30 13:15 | 48.17086 | 4.97669 | 35162 ft | 457 kts | 117° |
| 2026-04-30 13:16 | 48.14073 | 5.06101 | 35160 ft | 457 kts | 117° |
| 2026-04-30 13:16 | 48.11259 | 5.14654 | 35165 ft | 457 kts | 112° |
| 2026-04-30 13:17 | 48.08126 | 5.28039 | 35165 ft | 456 kts | 105° |
| 2026-04-30 13:18 | 48.05503 | 5.41766 | 35168 ft | 457 kts | 105° |
| 2026-04-30 13:18 | 48.02876 | 5.55403 | 35167 ft | 457 kts | 105° |
| 2026-04-30 13:19 | 48.01404 | 5.62996 | 34991 ft | 449 kts | 105° |
| 2026-04-30 13:19 | 48.00532 | 5.67472 | 34747 ft | 445 kts | 105° |
| 2026-04-30 13:19 | 47.99668 | 5.71904 | 34503 ft | 444 kts | 105° |
| 2026-04-30 13:20 | 47.98796 | 5.76367 | 34269 ft | 443 kts | 105° |
| 2026-04-30 13:20 | 47.97931 | 5.80786 | 34001 ft | 442 kts | 105° |
| 2026-04-30 13:20 | 47.97075 | 5.85148 | 33728 ft | 443 kts | 105° |
| 2026-04-30 13:20 | 47.96206 | 5.89571 | 33477 ft | 444 kts | 105° |
| 2026-04-30 13:21 | 47.95330 | 5.94016 | 33205 ft | 445 kts | 105° |
| 2026-04-30 13:21 | 47.94454 | 5.98450 | 32926 ft | 446 kts | 105° |
| 2026-04-30 13:21 | 47.93565 | 6.02942 | 32659 ft | 447 kts | 105° |
| 2026-04-30 13:22 | 47.91787 | 6.11887 | 32111 ft | 450 kts | 105° |
| 2026-04-30 13:22 | 47.90905 | 6.16312 | 31712 ft | 451 kts | 105° |
| 2026-04-30 13:22 | 47.89105 | 6.25313 | 30594 ft | 453 kts | 105° |
| 2026-04-30 13:23 | 47.88198 | 6.29832 | 29911 ft | 454 kts | 105° |
| 2026-04-30 13:23 | 47.86375 | 6.38865 | 28490 ft | 454 kts | 105° |
| 2026-04-30 13:24 | 47.84562 | 6.47814 | 27580 ft | 451 kts | 105° |
| 2026-04-30 13:24 | 47.82753 | 6.56706 | 26619 ft | 443 kts | 105° |
| 2026-04-30 13:25 | 47.80978 | 6.65386 | 25759 ft | 434 kts | 105° |
| 2026-04-30 13:25 | 47.79226 | 6.73926 | 24926 ft | 426 kts | 105° |
| 2026-04-30 13:26 | 47.76652 | 6.86387 | 23665 ft | 417 kts | 105° |
| 2026-04-30 13:26 | 47.74944 | 6.94605 | 22773 ft | 410 kts | 105° |
| 2026-04-30 13:27 | 47.73265 | 7.02657 | 21929 ft | 403 kts | 105° |
| 2026-04-30 13:28 | 47.70793 | 7.14466 | 20550 ft | 395 kts | 105° |
| 2026-04-30 13:28 | 47.69156 | 7.22257 | 19279 ft | 385 kts | 105° |
| 2026-04-30 13:28 | 47.68371 | 7.25977 | 19016 ft | 369 kts | 105° |
| 2026-04-30 13:29 | 47.66891 | 7.32970 | 18539 ft | 340 kts | 105° |
| 2026-04-30 13:29 | 47.65529 | 7.39388 | 17999 ft | 315 kts | 105° |
| 2026-04-30 13:30 | 47.63559 | 7.48660 | 16543 ft | 314 kts | 105° |
| 2026-04-30 13:31 | 47.62162 | 7.54854 | 15751 ft | 312 kts | 107° |
| 2026-04-30 13:31 | 47.60036 | 7.63898 | 14614 ft | 307 kts | 107° |
| 2026-04-30 13:32 | 47.58654 | 7.69810 | 13870 ft | 303 kts | 108° |
| 2026-04-30 13:32 | 47.57296 | 7.75696 | 13066 ft | 300 kts | 107° |
| 2026-04-30 13:33 | 47.55953 | 7.81500 | 12310 ft | 296 kts | 107° |
| 2026-04-30 13:33 | 47.54634 | 7.87236 | 11528 ft | 292 kts | 107° |
| 2026-04-30 13:34 | 47.54014 | 7.90102 | 11135 ft | 290 kts | 100° |
| 2026-04-30 13:34 | 47.55009 | 7.98749 | 9918 ft | 284 kts | 73° |
| 2026-04-30 13:35 | 47.55573 | 8.01554 | 9490 ft | 283 kts | 73° |
| 2026-04-30 13:35 | 47.56135 | 8.04316 | 9287 ft | 275 kts | 73° |
| 2026-04-30 13:36 | 47.57140 | 8.09236 | 8928 ft | 258 kts | 73° |
| 2026-04-30 13:36 | 47.57653 | 8.11748 | 8730 ft | 248 kts | 73° |
| 2026-04-30 13:36 | 47.58625 | 8.16476 | 8420 ft | 232 kts | 73° |
| 2026-04-30 13:37 | 47.59091 | 8.18724 | 8180 ft | 224 kts | 73° |
| 2026-04-30 13:37 | 47.59999 | 8.23056 | 7576 ft | 213 kts | 73° |
| 2026-04-30 13:38 | 47.60855 | 8.27130 | 7106 ft | 197 kts | 73° |
| 2026-04-30 13:38 | 47.61197 | 8.29049 | 6855 ft | 189 kts | 90° |
| 2026-04-30 13:38 | 47.60448 | 8.32680 | 6146 ft | 185 kts | 113° |
| 2026-04-30 13:39 | 47.59341 | 8.36056 | 5317 ft | 178 kts | 113° |
| 2026-04-30 13:39 | 47.58193 | 8.39300 | 4494 ft | 179 kts | 119° |
| 2026-04-30 13:40 | 47.57432 | 8.40739 | 4034 ft | 181 kts | 126° |
| 2026-04-30 13:40 | 47.56573 | 8.42101 | 3685 ft | 175 kts | 128° |
| 2026-04-30 13:40 | 47.55733 | 8.43316 | 3407 ft | 166 kts | 131° |
| 2026-04-30 13:40 | 47.54888 | 8.44482 | 3240 ft | 164 kts | 131° |
| 2026-04-30 13:41 | 47.54045 | 8.45628 | 3062 ft | 164 kts | 131° |
| 2026-04-30 13:41 | 47.53201 | 8.46776 | 2842 ft | 163 kts | 131° |
| 2026-04-30 13:41 | 47.52377 | 8.47901 | 2632 ft | 163 kts | 131° |
| 2026-04-30 13:41 | 47.51544 | 8.49042 | 2398 ft | 163 kts | 131° |
| 2026-04-30 13:42 | 47.50713 | 8.50175 | 2118 ft | 162 kts | 130° |
| 2026-04-30 13:42 | 47.49886 | 8.51309 | 1887 ft | 161 kts | 130° |
| 2026-04-30 13:42 | 47.48234 | 8.53571 | 1459 ft | 161 kts | 133° |
| 2026-04-30 13:43 | 47.47472 | 8.54619 | 1411 ft | 111 kts | 136° |
| 2026-04-30 13:43 | 47.47151 | 8.55056 | 1410 ft | 20 kts | 137° |
| 2026-04-30 13:43 | 47.47041 | 8.55207 | 1408 ft | 23 kts | 137° |
| 2026-04-30 13:43 | 47.46920 | 8.55373 | 1409 ft | 24 kts | 137° |
| 2026-04-30 13:44 | 47.46791 | 8.55541 | 1414 ft | 26 kts | 145° |
| 2026-04-30 13:44 | 47.46626 | 8.55667 | 1414 ft | 27 kts | 162° |
| 2026-04-30 13:44 | 47.46466 | 8.55724 | 1407 ft | 18 kts | 167° |
| 2026-04-30 13:44 | 47.46354 | 8.55798 | 1413 ft | 19 kts | 139° |
| 2026-04-30 13:45 | 47.46244 | 8.55757 | 1405 ft | 13 kts | 274° |
| 2026-04-30 13:45 | 47.46201 | 8.55694 | 1412 ft | 10 kts | 198° |
| 2026-04-30 13:45 | 47.46179 | 8.55688 | 1409 ft | 0 kts | 182° |
| 2026-04-30 13:46 | 47.46174 | 8.55687 | 1408 ft | 1 kts | 185° |